sensor_id;sensor_type;location;lat;lon;timestamp;pressure;altitude;pressure_sealevel;temperature;humidity
40384;BME280;26097;42.366;23.818;2022-09-09T00:02:46;94444.72;;;11.93;100.00
40384;BME280;26097;42.366;23.818;2022-09-09T00:12:25;94442.69;;;11.85;100.00
40384;BME280;26097;42.366;23.818;2022-09-09T00:15:41;94444.47;;;11.85;100.00
40384;BME280;26097;42.366;23.818;2022-09-09T00:22:18;94439.13;;;11.86;100.00
40384;BME280;26097;42.366;23.818;2022-09-09T00:28:55;94436.88;;;11.82;100.00
40384;BME280;26097;42.366;23.818;2022-09-09T00:32:09;94440.75;;;11.76;100.00
40384;BME280;26097;42.366;23.818;2022-09-09T00:35:22;94443.38;;;11.76;100.00
40384;BME280;26097;42.366;23.818;2022-09-09T00:38:28;94451.91;;;11.78;100.00
40384;BME280;26097;42.366;23.818;2022-09-09T00:44:37;94442.19;;;11.69;100.00
40384;BME280;26097;42.366;23.818;2022-09-09T00:47:49;94442.66;;;11.63;100.00
40384;BME280;26097;42.366;23.818;2022-09-09T00:50:54;94438.84;;;11.67;100.00
40384;BME280;26097;42.366;23.818;2022-09-09T00:54:15;94431.25;;;11.64;100.00
40384;BME280;26097;42.366;23.818;2022-09-09T00:57:29;94429.47;;;11.64;100.00
40384;BME280;26097;42.366;23.818;2022-09-09T01:00:38;94425.31;;;11.62;100.00
40384;BME280;26097;42.366;23.818;2022-09-09T01:03:55;94421.47;;;11.54;100.00
40384;BME280;26097;42.366;23.818;2022-09-09T01:07:03;94421.72;;;11.51;100.00
40384;BME280;26097;42.366;23.818;2022-09-09T01:10:15;94431.91;;;11.54;100.00
40384;BME280;26097;42.366;23.818;2022-09-09T01:13:27;94421.84;;;11.50;100.00
40384;BME280;26097;42.366;23.818;2022-09-09T01:16:31;94417.91;;;11.44;100.00
40384;BME280;26097;42.366;23.818;2022-09-09T01:29:18;94427.72;;;11.40;100.00
40384;BME280;26097;42.366;23.818;2022-09-09T01:32:43;94419.19;;;11.38;100.00
40384;BME280;26097;42.366;23.818;2022-09-09T01:35:55;94418.34;;;11.38;100.00
40384;BME280;26097;42.366;23.818;2022-09-09T01:38:57;94420.38;;;11.34;100.00
40384;BME280;26097;42.366;23.818;2022-09-09T01:41:58;94415.56;;;11.28;100.00
40384;BME280;26097;42.366;23.818;2022-09-09T01:44:58;94413.31;;;11.23;100.00
40384;BME280;26097;42.366;23.818;2022-09-09T01:47:59;94409.88;;;11.23;100.00
40384;BME280;26097;42.366;23.818;2022-09-09T01:51:00;94416.03;;;11.22;100.00
40384;BME280;26097;42.366;23.818;2022-09-09T01:54:01;94416.16;;;11.20;100.00
40384;BME280;26097;42.366;23.818;2022-09-09T01:57:15;94425.13;;;11.16;100.00
40384;BME280;26097;42.366;23.818;2022-09-09T02:00:18;94418.16;;;11.17;100.00
40384;BME280;26097;42.366;23.818;2022-09-09T02:03:25;94409.47;;;11.16;100.00
40384;BME280;26097;42.366;23.818;2022-09-09T02:06:35;94412.09;;;11.16;100.00
40384;BME280;26097;42.366;23.818;2022-09-09T02:09:40;94409.63;;;11.14;100.00
40384;BME280;26097;42.366;23.818;2022-09-09T02:12:48;94416.59;;;11.14;100.00
40384;BME280;26097;42.366;23.818;2022-09-09T02:19:13;94412.56;;;11.10;100.00
40384;BME280;26097;42.366;23.818;2022-09-09T02:22:17;94420.59;;;11.07;100.00
40384;BME280;26097;42.366;23.818;2022-09-09T02:25:22;94419.53;;;11.09;100.00
40384;BME280;26097;42.366;23.818;2022-09-09T02:28:26;94423.69;;;11.12;100.00
40384;BME280;26097;42.366;23.818;2022-09-09T02:31:30;94411.84;;;11.08;100.00
40384;BME280;26097;42.366;23.818;2022-09-09T02:34:34;94421.41;;;11.07;100.00
40384;BME280;26097;42.366;23.818;2022-09-09T02:37:38;94414.66;;;11.05;100.00
40384;BME280;26097;42.366;23.818;2022-09-09T02:40:39;94406.63;;;11.08;100.00
40384;BME280;26097;42.366;23.818;2022-09-09T02:43:39;94422.50;;;11.05;100.00
40384;BME280;26097;42.366;23.818;2022-09-09T02:53:20;94401.00;;;11.01;100.00
40384;BME280;26097;42.366;23.818;2022-09-09T02:56:25;94410.63;;;11.00;100.00
40384;BME280;26097;42.366;23.818;2022-09-09T02:59:29;94411.03;;;10.94;100.00
40384;BME280;26097;42.366;23.818;2022-09-09T03:02:30;94407.28;;;10.98;100.00
40384;BME280;26097;42.366;23.818;2022-09-09T03:05:31;94413.44;;;10.97;100.00
40384;BME280;26097;42.366;23.818;2022-09-09T03:08:31;94408.66;;;10.91;100.00
40384;BME280;26097;42.366;23.818;2022-09-09T03:11:32;94413.97;;;10.90;100.00
40384;BME280;26097;42.366;23.818;2022-09-09T03:14:32;94412.22;;;10.90;100.00
40384;BME280;26097;42.366;23.818;2022-09-09T03:17:33;94411.72;;;10.85;100.00
40384;BME280;26097;42.366;23.818;2022-09-09T03:20:34;94409.84;;;10.87;100.00
40384;BME280;26097;42.366;23.818;2022-09-09T03:23:34;94421.94;;;10.88;100.00
40384;BME280;26097;42.366;23.818;2022-09-09T03:26:35;94420.50;;;10.84;100.00
40384;BME280;26097;42.366;23.818;2022-09-09T03:29:35;94420.50;;;10.84;100.00
40384;BME280;26097;42.366;23.818;2022-09-09T03:32:36;94428.53;;;10.81;100.00
40384;BME280;26097;42.366;23.818;2022-09-09T03:35:37;94426.13;;;10.78;100.00
40384;BME280;26097;42.366;23.818;2022-09-09T03:38:37;94426.97;;;10.78;100.00
40384;BME280;26097;42.366;23.818;2022-09-09T03:41:38;94421.75;;;10.78;100.00
40384;BME280;26097;42.366;23.818;2022-09-09T03:44:38;94414.97;;;10.76;100.00
40384;BME280;26097;42.366;23.818;2022-09-09T03:47:39;94418.31;;;10.78;100.00
40384;BME280;26097;42.366;23.818;2022-09-09T03:50:44;94418.44;;;10.76;100.00
40384;BME280;26097;42.366;23.818;2022-09-09T03:53:44;94419.47;;;10.74;100.00
40384;BME280;26097;42.366;23.818;2022-09-09T03:56:45;94426.78;;;10.68;100.00
40384;BME280;26097;42.366;23.818;2022-09-09T03:59:45;94431.06;;;10.69;100.00
40384;BME280;26097;42.366;23.818;2022-09-09T04:02:46;94422.81;;;10.76;100.00
40384;BME280;26097;42.366;23.818;2022-09-09T04:05:48;94424.47;;;10.77;100.00
40384;BME280;26097;42.366;23.818;2022-09-09T04:08:49;94419.25;;;10.77;100.00
40384;BME280;26097;42.366;23.818;2022-09-09T04:11:49;94413.81;;;10.80;100.00
40384;BME280;26097;42.366;23.818;2022-09-09T04:14:50;94421.03;;;10.76;100.00
40384;BME280;26097;42.366;23.818;2022-09-09T04:17:50;94418.31;;;10.78;100.00
40384;BME280;26097;42.366;23.818;2022-09-09T04:20:52;94419.88;;;10.80;100.00
40384;BME280;26097;42.366;23.818;2022-09-09T04:23:52;94421.44;;;10.83;100.00
40384;BME280;26097;42.366;23.818;2022-09-09T04:26:53;94426.66;;;10.83;100.00
40384;BME280;26097;42.366;23.818;2022-09-09T04:29:53;94431.41;;;10.89;100.00
40384;BME280;26097;42.366;23.818;2022-09-09T04:32:56;94437.97;;;10.95;100.00
40384;BME280;26097;42.366;23.818;2022-09-09T04:35:56;94434.28;;;10.97;100.00
40384;BME280;26097;42.366;23.818;2022-09-09T04:38:57;94450.47;;;11.03;100.00
40384;BME280;26097;42.366;23.818;2022-09-09T04:41:57;94449.91;;;11.10;100.00
40384;BME280;26097;42.366;23.818;2022-09-09T04:44:58;94438.91;;;11.18;100.00
40384;BME280;26097;42.366;23.818;2022-09-09T04:47:58;94434.06;;;11.25;100.00
40384;BME280;26097;42.366;23.818;2022-09-09T04:51:06;94432.47;;;11.35;100.00
40384;BME280;26097;42.366;23.818;2022-09-09T04:54:06;94433.94;;;11.51;100.00
40384;BME280;26097;42.366;23.818;2022-09-09T04:57:07;94435.19;;;11.69;100.00
40384;BME280;26097;42.366;23.818;2022-09-09T05:00:08;94441.28;;;11.81;100.00
40384;BME280;26097;42.366;23.818;2022-09-09T05:03:10;94428.69;;;11.86;100.00
40384;BME280;26097;42.366;23.818;2022-09-09T05:06:12;94420.84;;;11.98;100.00
40384;BME280;26097;42.366;23.818;2022-09-09T05:09:13;94424.56;;;12.07;100.00
40384;BME280;26097;42.366;23.818;2022-09-09T05:12:14;94434.56;;;12.24;100.00
40384;BME280;26097;42.366;23.818;2022-09-09T05:15:14;94447.50;;;12.37;100.00
40384;BME280;26097;42.366;23.818;2022-09-09T05:18:14;94442.50;;;12.57;100.00
40384;BME280;26097;42.366;23.818;2022-09-09T05:21:16;94434.19;;;12.75;100.00
40384;BME280;26097;42.366;23.818;2022-09-09T05:24:17;94425.25;;;12.89;100.00
40384;BME280;26097;42.366;23.818;2022-09-09T05:27:18;94415.94;;;12.96;100.00
40384;BME280;26097;42.366;23.818;2022-09-09T05:30:19;94410.31;;;13.12;100.00
40384;BME280;26097;42.366;23.818;2022-09-09T05:33:20;94421.19;;;13.28;100.00
40384;BME280;26097;42.366;23.818;2022-09-09T05:36:22;94420.69;;;13.46;100.00
40384;BME280;26097;42.366;23.818;2022-09-09T05:39:23;94408.25;;;13.60;100.00
40384;BME280;26097;42.366;23.818;2022-09-09T05:42:23;94404.47;;;13.74;100.00
40384;BME280;26097;42.366;23.818;2022-09-09T05:45:24;94399.03;;;13.87;100.00
40384;BME280;26097;42.366;23.818;2022-09-09T05:48:28;94383.94;;;14.00;100.00
40384;BME280;26097;42.366;23.818;2022-09-09T05:51:29;94395.88;;;14.14;100.00
40384;BME280;26097;42.366;23.818;2022-09-09T05:54:32;94399.91;;;14.28;100.00
40384;BME280;26097;42.366;23.818;2022-09-09T05:57:33;94385.63;;;14.42;100.00
40384;BME280;26097;42.366;23.818;2022-09-09T06:00:33;94392.44;;;14.54;100.00
40384;BME280;26097;42.366;23.818;2022-09-09T06:03:35;94395.41;;;14.71;100.00
40384;BME280;26097;42.366;23.818;2022-09-09T06:06:37;94395.84;;;14.86;100.00
40384;BME280;26097;42.366;23.818;2022-09-09T06:09:39;94403.34;;;15.01;100.00
40384;BME280;26097;42.366;23.818;2022-09-09T06:12:39;94402.09;;;15.14;100.00
40384;BME280;26097;42.366;23.818;2022-09-09T06:15:49;94395.34;;;15.32;100.00
40384;BME280;26097;42.366;23.818;2022-09-09T06:18:51;94404.75;;;15.44;100.00
40384;BME280;26097;42.366;23.818;2022-09-09T06:21:51;94390.22;;;15.60;100.00
40384;BME280;26097;42.366;23.818;2022-09-09T06:24:52;94396.03;;;15.73;100.00
40384;BME280;26097;42.366;23.818;2022-09-09T06:27:53;94394.19;;;15.83;100.00
40384;BME280;26097;42.366;23.818;2022-09-09T06:31:00;94398.34;;;15.96;100.00
40384;BME280;26097;42.366;23.818;2022-09-09T06:34:03;94402.63;;;16.07;100.00
40384;BME280;26097;42.366;23.818;2022-09-09T06:37:04;94413.78;;;16.19;100.00
40384;BME280;26097;42.366;23.818;2022-09-09T06:40:05;94405.72;;;16.30;100.00
40384;BME280;26097;42.366;23.818;2022-09-09T06:43:06;94401.25;;;16.40;100.00
40384;BME280;26097;42.366;23.818;2022-09-09T06:46:10;94394.16;;;16.51;100.00
40384;BME280;26097;42.366;23.818;2022-09-09T06:49:11;94400.88;;;16.63;100.00
40384;BME280;26097;42.366;23.818;2022-09-09T06:52:12;94392.50;;;16.78;100.00
40384;BME280;26097;42.366;23.818;2022-09-09T06:55:12;94398.91;;;16.93;100.00
40384;BME280;26097;42.366;23.818;2022-09-09T06:58:13;94403.72;;;16.98;100.00
40384;BME280;26097;42.366;23.818;2022-09-09T07:01:16;94401.06;;;17.08;100.00
40384;BME280;26097;42.366;23.818;2022-09-09T07:04:16;94392.88;;;17.11;100.00
40384;BME280;26097;42.366;23.818;2022-09-09T07:07:17;94400.84;;;17.19;100.00
40384;BME280;26097;42.366;23.818;2022-09-09T07:10:17;94410.56;;;17.37;100.00
40384;BME280;26097;42.366;23.818;2022-09-09T07:13:18;94411.25;;;17.39;100.00
40384;BME280;26097;42.366;23.818;2022-09-09T07:16:26;94405.38;;;17.45;100.00
40384;BME280;26097;42.366;23.818;2022-09-09T07:19:27;94401.66;;;17.56;100.00
40384;BME280;26097;42.366;23.818;2022-09-09T07:22:28;94399.25;;;17.81;99.60
40384;BME280;26097;42.366;23.818;2022-09-09T07:25:28;94399.06;;;18.01;99.54
40384;BME280;26097;42.366;23.818;2022-09-09T07:28:30;94397.81;;;18.13;99.54
40384;BME280;26097;42.366;23.818;2022-09-09T07:31:33;94392.97;;;18.26;98.31
40384;BME280;26097;42.366;23.818;2022-09-09T07:34:34;94394.38;;;18.39;95.89
40384;BME280;26097;42.366;23.818;2022-09-09T07:37:36;94389.56;;;18.42;93.19
40384;BME280;26097;42.366;23.818;2022-09-09T07:40:37;94398.53;;;18.50;92.43
40384;BME280;26097;42.366;23.818;2022-09-09T07:43:40;94396.44;;;18.62;94.08
40384;BME280;26097;42.366;23.818;2022-09-09T07:46:41;94397.97;;;18.73;90.84
40384;BME280;26097;42.366;23.818;2022-09-09T07:49:41;94392.22;;;18.86;92.13
40384;BME280;26097;42.366;23.818;2022-09-09T07:52:42;94389.50;;;19.04;92.29
40384;BME280;26097;42.366;23.818;2022-09-09T07:55:42;94380.63;;;19.21;91.88
40384;BME280;26097;42.366;23.818;2022-09-09T07:58:46;94386.09;;;19.45;92.25
40384;BME280;26097;42.366;23.818;2022-09-09T08:01:49;94388.44;;;19.64;90.39
40384;BME280;26097;42.366;23.818;2022-09-09T08:04:50;94383.97;;;19.73;89.32
40384;BME280;26097;42.366;23.818;2022-09-09T08:07:51;94385.28;;;19.77;88.87
40384;BME280;26097;42.366;23.818;2022-09-09T08:10:52;94376.84;;;19.82;88.63
40384;BME280;26097;42.366;23.818;2022-09-09T08:13:53;94386.75;;;19.88;89.23
40384;BME280;26097;42.366;23.818;2022-09-09T08:16:54;94381.97;;;20.00;88.06
40384;BME280;26097;42.366;23.818;2022-09-09T08:19:54;94380.00;;;20.10;89.07
40384;BME280;26097;42.366;23.818;2022-09-09T08:22:55;94378.16;;;20.19;86.64
40384;BME280;26097;42.366;23.818;2022-09-09T08:26:03;94380.47;;;20.22;87.70
40384;BME280;26097;42.366;23.818;2022-09-09T08:29:06;94382.91;;;20.32;88.37
40384;BME280;26097;42.366;23.818;2022-09-09T08:32:07;94373.28;;;20.39;87.56
40384;BME280;26097;42.366;23.818;2022-09-09T08:35:08;94374.41;;;20.53;87.34
40384;BME280;26097;42.366;23.818;2022-09-09T08:38:08;94377.19;;;20.68;86.31
40384;BME280;26097;42.366;23.818;2022-09-09T08:51:27;94363.75;;;21.57;83.83
40384;BME280;26097;42.366;23.818;2022-09-09T08:54:33;94350.72;;;22.08;80.22
40384;BME280;26097;42.366;23.818;2022-09-09T08:57:36;94337.19;;;22.33;80.92
40384;BME280;26097;42.366;23.818;2022-09-09T09:13:54;94339.16;;;22.54;78.87
40384;BME280;26097;42.366;23.818;2022-09-09T09:17:00;94333.53;;;22.64;78.88
40384;BME280;26097;42.366;23.818;2022-09-09T09:20:02;94347.34;;;22.75;76.74
40384;BME280;26097;42.366;23.818;2022-09-09T09:23:04;94340.72;;;23.01;77.06
40384;BME280;26097;42.366;23.818;2022-09-09T09:26:07;94346.91;;;23.08;74.21
40384;BME280;26097;42.366;23.818;2022-09-09T09:29:13;94338.53;;;23.48;75.52
40384;BME280;26097;42.366;23.818;2022-09-09T09:32:18;94344.16;;;23.81;73.86
40384;BME280;26097;42.366;23.818;2022-09-09T09:35:20;94338.56;;;23.98;74.70
40384;BME280;26097;42.366;23.818;2022-09-09T09:38:23;94333.66;;;23.73;68.47
40384;BME280;26097;42.366;23.818;2022-09-09T09:41:41;94330.97;;;23.73;66.95
40384;BME280;26097;42.366;23.818;2022-09-09T09:44:43;94323.69;;;23.82;65.53
40384;BME280;26097;42.366;23.818;2022-09-09T09:47:43;94331.03;;;23.80;65.78
40384;BME280;26097;42.366;23.818;2022-09-09T09:50:51;94330.19;;;23.73;64.65
40384;BME280;26097;42.366;23.818;2022-09-09T09:53:53;94326.97;;;23.84;65.92
40384;BME280;26097;42.366;23.818;2022-09-09T09:56:54;94320.69;;;23.92;64.58
40384;BME280;26097;42.366;23.818;2022-09-09T10:00:15;94325.63;;;23.95;65.75
40384;BME280;26097;42.366;23.818;2022-09-09T10:03:31;94316.50;;;24.04;64.30
40384;BME280;26097;42.366;23.818;2022-09-09T10:06:36;94323.78;;;23.95;62.54
40384;BME280;26097;42.366;23.818;2022-09-09T10:09:38;94326.34;;;23.82;64.60
40384;BME280;26097;42.366;23.818;2022-09-09T10:12:59;94330.50;;;23.63;62.33
40384;BME280;26097;42.366;23.818;2022-09-09T10:16:19;94325.25;;;23.98;62.95
40384;BME280;26097;42.366;23.818;2022-09-09T10:19:31;94321.69;;;24.13;62.10
40384;BME280;26097;42.366;23.818;2022-09-09T10:22:33;94318.72;;;24.29;62.64
40384;BME280;26097;42.366;23.818;2022-09-09T10:29:11;94308.97;;;24.50;62.38
40384;BME280;26097;42.366;23.818;2022-09-09T10:38:42;94319.50;;;24.23;61.89
40384;BME280;26097;42.366;23.818;2022-09-09T10:42:12;94319.81;;;24.06;63.12
40384;BME280;26097;42.366;23.818;2022-09-09T10:45:36;94319.94;;;24.33;61.27
40384;BME280;26097;42.366;23.818;2022-09-09T10:55:19;94324.53;;;25.64;56.90
40384;BME280;26097;42.366;23.818;2022-09-09T10:58:27;94322.44;;;25.52;57.66
40384;BME280;26097;42.366;23.818;2022-09-09T11:01:43;94323.91;;;25.82;56.26
40384;BME280;26097;42.366;23.818;2022-09-09T11:04:57;94316.72;;;25.69;58.98
40384;BME280;26097;42.366;23.818;2022-09-09T11:08:05;94311.38;;;25.62;56.36
40384;BME280;26097;42.366;23.818;2022-09-09T11:11:26;94312.81;;;25.72;58.07
40384;BME280;26097;42.366;23.818;2022-09-09T11:14:43;94306.88;;;25.76;56.65
40384;BME280;26097;42.366;23.818;2022-09-09T11:17:52;94296.59;;;25.60;56.58
40384;BME280;26097;42.366;23.818;2022-09-09T11:20:59;94295.94;;;25.44;56.86
40384;BME280;26097;42.366;23.818;2022-09-09T11:24:06;94292.84;;;25.20;55.50
40384;BME280;26097;42.366;23.818;2022-09-09T11:34:01;94298.50;;;24.90;59.02
40384;BME280;26097;42.366;23.818;2022-09-09T11:37:35;94289.47;;;24.78;62.33
40384;BME280;26097;42.366;23.818;2022-09-09T11:40:30;94300.84;;;24.58;62.05
40384;BME280;26097;42.366;23.818;2022-09-09T11:43:40;94302.63;;;24.51;64.96
40384;BME280;26097;42.366;23.818;2022-09-09T11:46:41;94299.97;;;24.51;66.95
40384;BME280;26097;42.366;23.818;2022-09-09T11:49:42;94305.91;;;24.53;66.54
40384;BME280;26097;42.366;23.818;2022-09-09T11:52:45;94285.16;;;24.90;62.49
40384;BME280;26097;42.366;23.818;2022-09-09T11:55:47;94291.63;;;25.36;61.43
40384;BME280;26097;42.366;23.818;2022-09-09T11:59:21;94289.97;;;25.29;55.88
40384;BME280;26097;42.366;23.818;2022-09-09T12:02:27;94294.84;;;25.05;60.41
40384;BME280;26097;42.366;23.818;2022-09-09T12:05:40;94294.63;;;24.93;61.40
40384;BME280;26097;42.366;23.818;2022-09-09T12:08:46;94291.13;;;24.92;61.89
40384;BME280;26097;42.366;23.818;2022-09-09T12:11:47;94279.94;;;25.44;60.90
40384;BME280;26097;42.366;23.818;2022-09-09T12:14:55;94276.63;;;25.22;60.94
40384;BME280;26097;42.366;23.818;2022-09-09T12:17:57;94281.94;;;25.02;60.23
40384;BME280;26097;42.366;23.818;2022-09-09T12:21:04;94277.25;;;25.17;60.80
40384;BME280;26097;42.366;23.818;2022-09-09T12:24:13;94270.28;;;25.16;58.78
40384;BME280;26097;42.366;23.818;2022-09-09T12:27:52;94263.91;;;25.17;61.68
40384;BME280;26097;42.366;23.818;2022-09-09T12:31:00;94252.81;;;25.07;60.74
40384;BME280;26097;42.366;23.818;2022-09-09T12:37:35;94244.81;;;24.45;64.39
40384;BME280;26097;42.366;23.818;2022-09-09T12:40:36;94239.16;;;24.19;67.08
40384;BME280;26097;42.366;23.818;2022-09-09T12:43:36;94239.34;;;23.82;66.76
40384;BME280;26097;42.366;23.818;2022-09-09T12:46:41;94243.00;;;23.75;67.42
40384;BME280;26097;42.366;23.818;2022-09-09T12:49:43;94240.84;;;23.63;67.93
40384;BME280;26097;42.366;23.818;2022-09-09T12:52:45;94231.84;;;23.64;70.19
40384;BME280;26097;42.366;23.818;2022-09-09T12:55:53;94229.41;;;23.63;70.31
40384;BME280;26097;42.366;23.818;2022-09-09T12:58:56;94218.19;;;23.74;69.34
40384;BME280;26097;42.366;23.818;2022-09-09T13:01:58;94213.53;;;23.83;69.76
40384;BME280;26097;42.366;23.818;2022-09-09T13:05:09;94216.31;;;23.68;69.61
40384;BME280;26097;42.366;23.818;2022-09-09T13:08:14;94205.25;;;23.64;68.56
40384;BME280;26097;42.366;23.818;2022-09-09T13:11:26;94212.03;;;23.67;68.79
40384;BME280;26097;42.366;23.818;2022-09-09T13:14:31;94214.06;;;23.65;70.05
40384;BME280;26097;42.366;23.818;2022-09-09T13:17:34;94210.28;;;23.52;71.82
40384;BME280;26097;42.366;23.818;2022-09-09T13:20:36;94218.19;;;23.39;71.67
40384;BME280;26097;42.366;23.818;2022-09-09T13:23:37;94228.63;;;23.19;71.69
40384;BME280;26097;42.366;23.818;2022-09-09T13:26:38;94220.72;;;23.04;72.29
40384;BME280;26097;42.366;23.818;2022-09-09T13:29:39;94217.69;;;22.85;73.04
40384;BME280;26097;42.366;23.818;2022-09-09T13:32:40;94229.19;;;22.71;73.99
40384;BME280;26097;42.366;23.818;2022-09-09T13:38:53;94220.19;;;22.72;72.59
40384;BME280;26097;42.366;23.818;2022-09-09T13:41:54;94218.16;;;22.74;74.76
40384;BME280;26097;42.366;23.818;2022-09-09T13:44:56;94217.03;;;22.61;76.20
40384;BME280;26097;42.366;23.818;2022-09-09T13:48:08;94207.34;;;22.38;79.75
40384;BME280;26097;42.366;23.818;2022-09-09T13:51:28;94205.94;;;22.21;81.81
40384;BME280;26097;42.366;23.818;2022-09-09T13:54:30;94208.28;;;22.16;81.64
40384;BME280;26097;42.366;23.818;2022-09-09T13:57:30;94205.75;;;22.07;81.16
40384;BME280;26097;42.366;23.818;2022-09-09T14:00:32;94202.47;;;22.05;83.24
40384;BME280;26097;42.366;23.818;2022-09-09T14:03:32;94203.19;;;21.99;83.47
40384;BME280;26097;42.366;23.818;2022-09-09T14:06:34;94210.44;;;22.05;82.86
40384;BME280;26097;42.366;23.818;2022-09-09T14:09:38;94204.63;;;22.17;83.25
40384;BME280;26097;42.366;23.818;2022-09-09T14:12:39;94205.72;;;22.22;83.92
40384;BME280;26097;42.366;23.818;2022-09-09T14:15:39;94192.06;;;22.25;84.90
40384;BME280;26097;42.366;23.818;2022-09-09T14:18:40;94193.16;;;22.31;83.07
40384;BME280;26097;42.366;23.818;2022-09-09T14:21:40;94190.41;;;22.54;81.39
40384;BME280;26097;42.366;23.818;2022-09-09T14:24:41;94185.28;;;22.75;81.06
40384;BME280;26097;42.366;23.818;2022-09-09T14:27:41;94171.50;;;22.86;80.29
40384;BME280;26097;42.366;23.818;2022-09-09T14:30:43;94179.91;;;22.90;80.21
40384;BME280;26097;42.366;23.818;2022-09-09T14:33:47;94161.09;;;22.91;78.64
40384;BME280;26097;42.366;23.818;2022-09-09T14:36:47;94152.25;;;22.84;80.61
40384;BME280;26097;42.366;23.818;2022-09-09T14:39:48;94161.19;;;22.76;80.85
40384;BME280;26097;42.366;23.818;2022-09-09T14:42:50;94156.88;;;22.97;74.50
40384;BME280;26097;42.366;23.818;2022-09-09T14:45:51;94155.50;;;23.30;73.35
40384;BME280;26097;42.366;23.818;2022-09-09T14:48:52;94155.44;;;23.87;73.14
40384;BME280;26097;42.366;23.818;2022-09-09T14:51:52;94149.09;;;23.88;74.64
40384;BME280;26097;42.366;23.818;2022-09-09T14:54:53;94156.66;;;23.49;76.31
40384;BME280;26097;42.366;23.818;2022-09-09T14:57:53;94154.69;;;23.64;74.60
40384;BME280;26097;42.366;23.818;2022-09-09T15:00:53;94169.03;;;23.35;75.16
40384;BME280;26097;42.366;23.818;2022-09-09T15:03:56;94172.00;;;23.25;74.84
40384;BME280;26097;42.366;23.818;2022-09-09T15:06:58;94162.59;;;23.22;75.52
40384;BME280;26097;42.366;23.818;2022-09-09T15:09:58;94171.84;;;23.27;76.96
40384;BME280;26097;42.366;23.818;2022-09-09T15:12:58;94165.50;;;23.28;78.76
40384;BME280;26097;42.366;23.818;2022-09-09T15:16:06;94168.19;;;23.28;78.86
40384;BME280;26097;42.366;23.818;2022-09-09T15:19:07;94169.91;;;23.77;76.73
40384;BME280;26097;42.366;23.818;2022-09-09T15:22:08;94166.53;;;23.97;74.35
40384;BME280;26097;42.366;23.818;2022-09-09T15:25:08;94165.44;;;24.20;67.92
40384;BME280;26097;42.366;23.818;2022-09-09T15:28:09;94158.50;;;24.32;66.40
40384;BME280;26097;42.366;23.818;2022-09-09T15:31:18;94166.31;;;24.34;65.68
40384;BME280;26097;42.366;23.818;2022-09-09T15:34:19;94171.50;;;24.07;65.37
40384;BME280;26097;42.366;23.818;2022-09-09T15:37:19;94165.41;;;23.78;65.22
40384;BME280;26097;42.366;23.818;2022-09-09T15:40:19;94168.84;;;23.65;69.01
40384;BME280;26097;42.366;23.818;2022-09-09T15:43:20;94169.69;;;23.72;68.11
40384;BME280;26097;42.366;23.818;2022-09-09T15:46:35;94163.28;;;23.60;68.47
40384;BME280;26097;42.366;23.818;2022-09-09T15:49:39;94167.59;;;23.32;71.00
40384;BME280;26097;42.366;23.818;2022-09-09T15:52:39;94168.56;;;23.03;72.31
40384;BME280;26097;42.366;23.818;2022-09-09T15:55:39;94172.06;;;22.81;72.41
40384;BME280;26097;42.366;23.818;2022-09-09T15:58:40;94172.75;;;22.47;72.68
40384;BME280;26097;42.366;23.818;2022-09-09T16:01:40;94163.00;;;22.17;75.33
40384;BME280;26097;42.366;23.818;2022-09-09T16:04:42;94171.56;;;21.82;77.89
40384;BME280;26097;42.366;23.818;2022-09-09T16:07:42;94171.69;;;21.51;80.60
40384;BME280;26097;42.366;23.818;2022-09-09T16:10:45;94166.66;;;21.26;80.78
40384;BME280;26097;42.366;23.818;2022-09-09T16:13:47;94162.47;;;20.93;86.02
40384;BME280;26097;42.366;23.818;2022-09-09T16:16:48;94160.16;;;20.67;88.65
40384;BME280;26097;42.366;23.818;2022-09-09T16:19:49;94162.59;;;20.30;91.12
40384;BME280;26097;42.366;23.818;2022-09-09T16:22:49;94165.81;;;20.09;93.72
40384;BME280;26097;42.366;23.818;2022-09-09T16:25:56;94170.88;;;19.87;95.17
40384;BME280;26097;42.366;23.818;2022-09-09T16:28:57;94168.41;;;19.77;92.43
40384;BME280;26097;42.366;23.818;2022-09-09T16:31:59;94159.03;;;19.66;93.08
40384;BME280;26097;42.366;23.818;2022-09-09T16:35:00;94168.53;;;19.44;95.64
40384;BME280;26097;42.366;23.818;2022-09-09T16:38:00;94163.09;;;19.37;96.08
40384;BME280;26097;42.366;23.818;2022-09-09T16:41:03;94167.75;;;19.27;94.85
40384;BME280;26097;42.366;23.818;2022-09-09T16:44:09;94169.56;;;19.18;95.09
40384;BME280;26097;42.366;23.818;2022-09-09T16:47:10;94172.56;;;19.15;94.54
40384;BME280;26097;42.366;23.818;2022-09-09T16:50:11;94171.88;;;18.96;96.67
40384;BME280;26097;42.366;23.818;2022-09-09T16:53:11;94159.50;;;18.89;96.38
40384;BME280;26097;42.366;23.818;2022-09-09T16:56:15;94170.91;;;18.73;99.46
40384;BME280;26097;42.366;23.818;2022-09-09T16:59:20;94173.38;;;18.58;100.00
40384;BME280;26097;42.366;23.818;2022-09-09T17:02:21;94175.84;;;18.51;100.00
40384;BME280;26097;42.366;23.818;2022-09-09T17:05:21;94174.16;;;18.41;100.00
40384;BME280;26097;42.366;23.818;2022-09-09T17:08:26;94175.63;;;18.27;100.00
40384;BME280;26097;42.366;23.818;2022-09-09T17:11:27;94175.78;;;18.18;100.00
40384;BME280;26097;42.366;23.818;2022-09-09T17:14:27;94169.00;;;18.07;100.00
40384;BME280;26097;42.366;23.818;2022-09-09T17:17:28;94166.69;;;18.04;100.00
40384;BME280;26097;42.366;23.818;2022-09-09T17:20:28;94168.25;;;17.96;100.00
40384;BME280;26097;42.366;23.818;2022-09-09T17:23:29;94178.44;;;17.83;100.00
40384;BME280;26097;42.366;23.818;2022-09-09T17:26:32;94180.56;;;17.79;100.00